createdAt,value
2023-04-30T20:25:47.973Z,59.86
2023-04-30T20:28:19.106Z,59.83
2023-04-30T20:30:47.377Z,60.67
2023-04-30T20:33:53.998Z,60.12
2023-04-30T20:36:39.353Z,60.65
2023-04-30T20:39:07.390Z,61.38
2023-04-30T20:41:34.004Z,61.40
2023-04-30T20:44:00.821Z,61.49
2023-04-30T20:46:28.386Z,62.25
2023-04-30T20:49:01.040Z,62.47
2023-04-30T20:51:28.166Z,62.97
2023-04-30T20:53:56.323Z,62.67
2023-04-30T20:56:23.063Z,62.05
2023-04-30T20:58:49.904Z,62.45
2023-04-30T21:01:20.036Z,62.80
2023-04-30T21:03:46.815Z,62.84
2023-04-30T21:06:17.585Z,62.89
2023-04-30T21:08:44.744Z,63.07
2023-04-30T21:11:12.631Z,63.36
2023-04-30T21:13:41.876Z,63.30
2023-04-30T21:16:08.709Z,62.33
2023-04-30T21:18:35.301Z,63.38
2023-04-30T21:21:03.769Z,62.86
2023-04-30T21:23:31.237Z,63.12
2023-04-30T21:26:00.472Z,62.74
2023-04-30T21:28:27.267Z,63.47
2023-04-30T21:30:56.637Z,63.63
2023-04-30T21:33:23.279Z,63.60
2023-04-30T21:35:53.193Z,64.04
2023-04-30T21:38:19.644Z,63.95
2023-04-30T21:40:49.201Z,64.11
2023-04-30T21:43:17.172Z,63.98
2023-04-30T21:45:47.057Z,64.81
2023-04-30T21:48:13.665Z,64.64
2023-04-30T21:50:42.430Z,65.01
2023-04-30T21:53:08.905Z,65.16
2023-04-30T21:55:35.450Z,65.69
2023-04-30T22:38:32.231Z,66.17
2023-04-30T22:41:00.302Z,67.51
2023-04-30T22:43:30.042Z,67.62
2023-04-30T22:46:00.280Z,67.76
2023-04-30T22:48:29.040Z,68.10
2023-04-30T22:50:56.364Z,68.15
2023-04-30T22:53:22.946Z,68.65
2023-04-30T22:55:52.106Z,68.88
2023-04-30T22:58:18.691Z,69.63
2023-04-30T23:00:45.857Z,70.11
2023-04-30T23:03:12.548Z,69.56
2023-04-30T23:05:43.810Z,70.07
2023-04-30T23:08:12.719Z,69.64
2023-04-30T23:10:42.447Z,70.44
2023-04-30T23:13:09.169Z,70.33
2023-04-30T23:15:35.866Z,69.24
2023-04-30T23:18:02.578Z,70.62
2023-04-30T23:20:29.433Z,69.97
2023-04-30T23:22:56.318Z,71.03
2023-04-30T23:25:23.029Z,70.28
2023-04-30T23:27:49.839Z,70.29
2023-04-30T23:30:21.786Z,70.03
2023-04-30T23:32:48.638Z,70.32
2023-04-30T23:35:15.666Z,70.83
2023-04-30T23:37:43.877Z,70.16
2023-04-30T23:48:15.587Z,70.59
2023-04-30T23:58:37.132Z,71.39
